createdAt,value
2022-08-22T00:02:11.056Z,16.20
2022-08-22T00:07:14.942Z,16.10
2022-08-22T00:12:17.675Z,16.10
2022-08-22T00:17:20.623Z,16.00
2022-08-22T00:22:23.348Z,16.20
2022-08-22T00:27:26.237Z,16.20
2022-08-22T00:32:29.148Z,16.10
2022-08-22T00:37:31.873Z,16.10
2022-08-22T00:42:34.989Z,16.10
2022-08-22T00:47:37.681Z,16.10
2022-08-22T00:52:40.486Z,16.10
2022-08-22T00:57:43.265Z,16.20
2022-08-22T01:02:50.451Z,16.10
2022-08-22T01:07:55.230Z,16.00
2022-08-22T01:12:58.164Z,16.00
2022-08-22T01:18:01.062Z,16.00
2022-08-22T01:23:03.867Z,15.90
2022-08-22T01:28:07.015Z,15.90
2022-08-22T01:33:09.752Z,15.90
2022-08-22T01:38:12.951Z,15.90
2022-08-22T01:43:16.007Z,16.00
2022-08-22T01:48:18.881Z,16.00
2022-08-22T01:53:22.892Z,16.00
2022-08-22T01:58:25.602Z,15.80
2022-08-22T02:03:29.406Z,15.70
2022-08-22T02:08:32.239Z,15.70
2022-08-22T02:13:35.093Z,15.60
2022-08-22T02:18:37.893Z,15.70
2022-08-22T02:23:40.739Z,15.80
2022-08-22T02:28:56.395Z,15.80
2022-08-22T02:34:01.367Z,15.70
2022-08-22T02:39:04.270Z,15.60
2022-08-22T02:44:07.141Z,15.60
2022-08-22T02:49:09.998Z,15.70
2022-08-22T02:54:13.249Z,15.80
2022-08-22T02:59:16.563Z,15.80
2022-08-22T03:04:19.479Z,15.60
2022-08-22T03:09:22.364Z,15.60
2022-08-22T03:14:25.125Z,15.30
2022-08-22T03:19:28.060Z,15.10
2022-08-22T03:24:30.901Z,15.00
2022-08-22T03:29:33.740Z,15.10
2022-08-22T03:34:36.503Z,15.30
2022-08-22T03:39:39.476Z,15.00
2022-08-22T03:44:42.207Z,15.00
2022-08-22T03:49:45.252Z,14.80
2022-08-22T03:54:48.604Z,15.00
2022-08-22T03:59:51.384Z,14.70
2022-08-22T04:04:54.152Z,14.60
2022-08-22T04:09:56.881Z,14.60
2022-08-22T04:14:59.719Z,14.50
2022-08-22T04:20:02.454Z,14.60
2022-08-22T04:25:07.941Z,14.60
2022-08-22T04:30:11.130Z,14.50
2022-08-22T04:35:13.841Z,14.60
2022-08-22T04:40:16.598Z,14.60
2022-08-22T04:45:19.413Z,14.70
2022-08-22T04:50:22.202Z,14.60
2022-08-22T04:55:25.229Z,14.70
2022-08-22T05:00:28.100Z,15.10
2022-08-22T05:05:31.504Z,15.60
2022-08-22T05:10:34.237Z,15.80
2022-08-22T05:15:36.986Z,16.00
2022-08-22T05:20:39.809Z,16.20
2022-08-22T05:25:42.879Z,16.40
2022-08-22T05:30:45.625Z,16.70
2022-08-22T05:35:50.804Z,17.00
2022-08-22T05:40:55.311Z,17.20
2022-08-22T05:45:59.215Z,17.50
2022-08-22T05:51:02.081Z,17.50
2022-08-22T05:56:04.825Z,17.60
2022-08-22T06:01:07.681Z,17.70
2022-08-22T06:06:10.853Z,17.90
2022-08-22T06:11:13.686Z,18.10
2022-08-22T06:16:17.925Z,18.30
2022-08-22T06:21:21.218Z,18.50
2022-08-22T06:26:24.330Z,18.60
2022-08-22T06:31:27.078Z,18.80
2022-08-22T06:36:33.175Z,19.00
2022-08-22T06:41:35.933Z,19.20
2022-08-22T06:46:38.699Z,19.10
2022-08-22T06:51:41.563Z,19.30
2022-08-22T06:56:44.293Z,19.50
2022-08-22T07:01:47.297Z,19.80
2022-08-22T07:06:50.523Z,20.10
2022-08-22T07:11:54.330Z,20.20
2022-08-22T07:16:57.068Z,20.10
2022-08-22T07:22:03.810Z,20.10
2022-08-22T07:27:08.958Z,20.50
2022-08-22T07:32:11.817Z,20.30
2022-08-22T07:37:14.627Z,20.50
2022-08-22T07:42:17.508Z,20.70
2022-08-22T07:47:26.339Z,20.80
2022-08-22T07:52:29.589Z,20.90
2022-08-22T07:57:32.694Z,21.30
2022-08-22T08:02:35.584Z,21.60
2022-08-22T08:07:38.542Z,21.70
2022-08-22T08:12:41.564Z,21.80
2022-08-22T08:17:50.204Z,22.10
2022-08-22T08:22:54.052Z,22.20
2022-08-22T08:28:14.338Z,22.40
2022-08-22T08:33:25.930Z,22.40
2022-08-22T08:38:29.373Z,22.30
2022-08-22T08:43:34.974Z,22.40
2022-08-22T08:48:37.703Z,22.70
2022-08-22T08:53:43.268Z,22.90
2022-08-22T08:58:46.894Z,22.90
2022-08-22T09:03:51.538Z,22.80
2022-08-22T09:08:55.961Z,22.60
2022-08-22T09:13:58.794Z,22.80
2022-08-22T09:19:01.518Z,23.10
2022-08-22T09:24:15.458Z,23.20
2022-08-22T09:29:18.263Z,23.20
2022-08-22T09:34:23.872Z,23.40
2022-08-22T09:39:26.863Z,23.40
2022-08-22T09:44:30.053Z,23.50
2022-08-22T09:49:33.462Z,23.50
2022-08-22T09:54:36.554Z,23.80
2022-08-22T09:59:41.164Z,23.60
2022-08-22T10:04:44.729Z,23.70
2022-08-22T10:09:47.552Z,23.70
2022-08-22T10:14:56.344Z,23.90
2022-08-22T10:19:59.973Z,24.00
2022-08-22T10:25:03.024Z,24.00
2022-08-22T10:30:09.697Z,24.10
2022-08-22T10:35:13.018Z,24.20
2022-08-22T10:40:18.664Z,24.60
2022-08-22T10:45:24.025Z,24.40
2022-08-22T10:50:38.757Z,24.40
2022-08-22T10:55:45.887Z,24.20
2022-08-22T11:00:49.861Z,24.00
2022-08-22T11:05:53.183Z,23.90
2022-08-22T11:10:57.796Z,24.00
2022-08-22T11:16:00.534Z,24.20
2022-08-22T11:21:07.284Z,24.40
2022-08-22T11:26:10.369Z,24.20
2022-08-22T11:31:14.055Z,24.50
2022-08-22T11:36:17.408Z,24.40
2022-08-22T11:41:20.370Z,24.20
2022-08-22T11:46:23.252Z,24.00
2022-08-22T11:51:26.333Z,24.20
2022-08-22T11:56:29.600Z,24.20
2022-08-22T12:01:34.256Z,24.40
2022-08-22T12:06:37.369Z,24.30
2022-08-22T12:11:40.104Z,24.40
2022-08-22T12:16:45.006Z,24.30
2022-08-22T12:21:49.503Z,24.20
2022-08-22T12:26:52.495Z,24.40
2022-08-22T12:31:57.745Z,24.40
2022-08-22T12:37:00.851Z,24.40
2022-08-22T12:42:04.158Z,24.40
2022-08-22T12:47:07.473Z,24.30
2022-08-22T12:52:12.149Z,24.00
2022-08-22T12:57:24.262Z,24.00
2022-08-22T13:02:27.364Z,24.10
2022-08-22T13:07:30.396Z,24.40
2022-08-22T13:12:35.223Z,24.60
2022-08-22T13:17:37.995Z,24.60
2022-08-22T13:22:45.678Z,24.50
2022-08-22T13:27:51.381Z,24.50
2022-08-22T13:32:54.374Z,24.70
2022-08-22T13:37:57.161Z,24.80
2022-08-22T13:43:03.145Z,24.70
2022-08-22T13:48:08.680Z,24.70
2022-08-22T13:53:11.794Z,24.70
2022-08-22T13:58:20.215Z,25.00
2022-08-22T14:03:24.762Z,24.90
2022-08-22T14:08:27.493Z,25.00
2022-08-22T14:13:30.400Z,24.80
2022-08-22T14:18:36.021Z,24.70
2022-08-22T14:23:48.469Z,24.80
2022-08-22T14:28:51.526Z,24.60
2022-08-22T14:33:56.077Z,24.50
2022-08-22T14:38:59.600Z,24.60
2022-08-22T14:44:02.829Z,24.80
2022-08-22T14:49:05.814Z,24.80
2022-08-22T14:54:08.845Z,24.80
2022-08-22T14:59:17.267Z,24.90
2022-08-22T15:04:20.375Z,24.80
2022-08-22T15:09:23.487Z,24.70
2022-08-22T15:14:26.901Z,24.60
2022-08-22T15:19:29.778Z,24.50
2022-08-22T15:24:32.766Z,24.40
2022-08-22T15:29:36.610Z,24.20
2022-08-22T15:34:39.347Z,23.80
2022-08-22T15:39:43.545Z,23.40
2022-08-22T15:44:46.265Z,23.50
2022-08-22T15:49:50.445Z,23.40
2022-08-22T15:54:53.853Z,23.20
2022-08-22T15:59:56.717Z,22.90
2022-08-22T16:04:59.491Z,22.60
2022-08-22T16:10:02.642Z,22.60
2022-08-22T16:15:05.477Z,22.30
2022-08-22T16:20:19.446Z,22.20
2022-08-22T16:25:23.045Z,22.10
2022-08-22T16:30:25.866Z,22.00
2022-08-22T16:35:28.636Z,21.90
2022-08-22T16:40:31.889Z,21.80
2022-08-22T16:45:34.802Z,21.70
2022-08-22T16:50:38.642Z,21.60
2022-08-22T16:55:41.753Z,21.40
2022-08-22T17:00:45.153Z,21.40
2022-08-22T17:05:51.600Z,21.20
2022-08-22T17:10:54.413Z,21.20
2022-08-22T17:15:57.138Z,21.10
2022-08-22T17:21:00.188Z,20.90
2022-08-22T17:26:02.940Z,20.90
2022-08-22T17:31:05.793Z,20.80
2022-08-22T17:36:08.792Z,20.70
2022-08-22T17:41:30.111Z,20.60
2022-08-22T17:46:32.972Z,20.50
2022-08-22T17:51:36.840Z,20.40
2022-08-22T17:56:39.834Z,20.30
2022-08-22T18:01:42.786Z,20.20
2022-08-22T18:06:45.750Z,20.10
2022-08-22T18:11:49.511Z,19.90
2022-08-22T18:16:52.400Z,19.80
2022-08-22T18:21:55.139Z,19.70
2022-08-22T18:26:57.934Z,19.60
2022-08-22T18:32:00.881Z,19.40
2022-08-22T18:37:03.799Z,19.30
2022-08-22T18:42:07.292Z,19.10
2022-08-22T18:47:10.014Z,19.00
2022-08-22T18:52:13.573Z,18.90
2022-08-22T18:57:17.741Z,18.80
2022-08-22T19:02:20.584Z,18.70
2022-08-22T19:07:23.381Z,18.60
2022-08-22T19:12:26.175Z,18.50
2022-08-22T19:17:29.077Z,18.40
2022-08-22T19:22:34.005Z,18.30
2022-08-22T19:27:36.926Z,18.30
2022-08-22T19:32:39.671Z,18.30
2022-08-22T19:37:46.237Z,18.20
2022-08-22T19:42:50.089Z,18.10
2022-08-22T19:47:53.075Z,18.00
2022-08-22T19:52:57.983Z,17.90
2022-08-22T19:58:00.898Z,17.80
2022-08-22T20:03:05.170Z,17.70
2022-08-22T20:08:07.966Z,17.60
2022-08-22T20:13:11.904Z,17.60
2022-08-22T20:23:37.956Z,17.60
2022-08-22T20:28:40.818Z,17.50
2022-08-22T20:33:47.112Z,17.40
2022-08-22T20:38:55.695Z,17.30
2022-08-22T20:43:58.993Z,17.10
2022-08-22T20:49:01.902Z,17.10
2022-08-22T20:54:10.047Z,17.10
2022-08-22T20:59:16.525Z,17.00
2022-08-22T21:04:19.816Z,16.90
2022-08-22T21:09:40.351Z,17.00
2022-08-22T21:14:46.296Z,16.90
2022-08-22T21:19:49.100Z,16.70
2022-08-22T21:24:52.094Z,16.70
2022-08-22T21:29:55.030Z,16.60
2022-08-22T21:34:57.745Z,16.60
2022-08-22T21:40:00.708Z,16.60
2022-08-22T21:45:03.724Z,16.60
2022-08-22T21:50:06.579Z,16.50
2022-08-22T21:55:13.017Z,16.40
2022-08-22T22:00:15.808Z,16.30
2022-08-22T22:05:20.509Z,16.30
2022-08-22T22:10:23.636Z,16.30
2022-08-22T22:15:26.424Z,16.30
2022-08-22T22:20:29.596Z,16.20
2022-08-22T22:25:40.759Z,16.20
2022-08-22T22:30:45.110Z,16.10
2022-08-22T22:35:48.066Z,15.90
2022-08-22T22:40:50.939Z,15.90
2022-08-22T22:45:53.785Z,15.80
2022-08-22T22:50:56.802Z,15.70
2022-08-22T22:56:00.604Z,15.50
2022-08-22T23:01:03.709Z,15.60
2022-08-22T23:06:06.986Z,15.70
2022-08-22T23:11:09.878Z,15.70
2022-08-22T23:16:13.466Z,15.60
2022-08-22T23:21:16.807Z,15.70
2022-08-22T23:26:19.586Z,15.70
2022-08-22T23:31:22.317Z,15.70
2022-08-22T23:36:25.474Z,15.60
2022-08-22T23:41:30.240Z,15.40
2022-08-22T23:46:32.977Z,15.30
2022-08-22T23:51:37.736Z,15.30
2022-08-22T23:56:40.676Z,15.30
